sensor_id;sensor_type;location;lat;lon;timestamp;P1;durP1;ratioP1;P2;durP2;ratioP2
3924;SDS011;1977;52.274;10.518;2024-03-06T00:00:11;26.77;;;15.10;;
3924;SDS011;1977;52.274;10.518;2024-03-06T00:02:38;28.30;;;15.20;;
3924;SDS011;1977;52.274;10.518;2024-03-06T00:05:05;20.00;;;14.50;;
3924;SDS011;1977;52.274;10.518;2024-03-06T00:07:32;22.93;;;13.73;;
3924;SDS011;1977;52.274;10.518;2024-03-06T00:09:59;14.70;;;12.63;;
3924;SDS011;1977;52.274;10.518;2024-03-06T00:12:27;18.20;;;14.30;;
3924;SDS011;1977;52.274;10.518;2024-03-06T00:14:55;20.33;;;13.63;;
3924;SDS011;1977;52.274;10.518;2024-03-06T00:17:21;23.03;;;14.80;;
3924;SDS011;1977;52.274;10.518;2024-03-06T00:19:48;17.33;;;12.63;;
3924;SDS011;1977;52.274;10.518;2024-03-06T00:22:15;21.43;;;13.60;;
3924;SDS011;1977;52.274;10.518;2024-03-06T00:24:42;19.07;;;13.77;;
3924;SDS011;1977;52.274;10.518;2024-03-06T00:27:09;20.03;;;14.37;;
3924;SDS011;1977;52.274;10.518;2024-03-06T00:29:37;19.93;;;14.73;;
3924;SDS011;1977;52.274;10.518;2024-03-06T00:32:04;20.17;;;14.13;;
3924;SDS011;1977;52.274;10.518;2024-03-06T00:34:31;19.63;;;14.47;;
3924;SDS011;1977;52.274;10.518;2024-03-06T00:36:57;18.00;;;13.60;;
3924;SDS011;1977;52.274;10.518;2024-03-06T00:39:24;17.50;;;13.30;;
3924;SDS011;1977;52.274;10.518;2024-03-06T00:41:51;20.53;;;14.23;;
3924;SDS011;1977;52.274;10.518;2024-03-06T00:44:18;17.73;;;14.03;;
3924;SDS011;1977;52.274;10.518;2024-03-06T00:46:46;17.00;;;13.30;;
3924;SDS011;1977;52.274;10.518;2024-03-06T00:49:14;22.57;;;13.43;;
3924;SDS011;1977;52.274;10.518;2024-03-06T00:51:41;17.23;;;13.43;;
3924;SDS011;1977;52.274;10.518;2024-03-06T00:54:07;18.60;;;13.13;;
3924;SDS011;1977;52.274;10.518;2024-03-06T00:56:36;17.83;;;13.37;;
3924;SDS011;1977;52.274;10.518;2024-03-06T00:59:04;16.07;;;13.50;;
3924;SDS011;1977;52.274;10.518;2024-03-06T01:01:30;19.93;;;14.10;;
3924;SDS011;1977;52.274;10.518;2024-03-06T01:03:58;18.40;;;14.13;;
3924;SDS011;1977;52.274;10.518;2024-03-06T01:06:25;18.03;;;14.00;;
3924;SDS011;1977;52.274;10.518;2024-03-06T01:08:52;20.10;;;15.53;;
3924;SDS011;1977;52.274;10.518;2024-03-06T01:11:19;17.27;;;13.60;;
3924;SDS011;1977;52.274;10.518;2024-03-06T01:13:46;15.60;;;12.50;;
3924;SDS011;1977;52.274;10.518;2024-03-06T01:16:13;16.70;;;13.73;;
3924;SDS011;1977;52.274;10.518;2024-03-06T01:18:39;17.70;;;13.03;;
3924;SDS011;1977;52.274;10.518;2024-03-06T01:21:08;21.47;;;13.80;;
3924;SDS011;1977;52.274;10.518;2024-03-06T01:23:34;18.47;;;13.83;;
3924;SDS011;1977;52.274;10.518;2024-03-06T01:26:01;21.47;;;15.40;;
3924;SDS011;1977;52.274;10.518;2024-03-06T01:28:28;17.87;;;12.07;;
3924;SDS011;1977;52.274;10.518;2024-03-06T01:30:55;20.80;;;13.67;;
3924;SDS011;1977;52.274;10.518;2024-03-06T01:33:23;18.30;;;14.03;;
3924;SDS011;1977;52.274;10.518;2024-03-06T01:35:50;19.63;;;14.20;;
3924;SDS011;1977;52.274;10.518;2024-03-06T01:38:18;20.37;;;14.43;;
3924;SDS011;1977;52.274;10.518;2024-03-06T01:40:45;19.20;;;14.00;;
3924;SDS011;1977;52.274;10.518;2024-03-06T01:43:21;18.03;;;13.67;;
3924;SDS011;1977;52.274;10.518;2024-03-06T01:45:49;17.13;;;13.00;;
3924;SDS011;1977;52.274;10.518;2024-03-06T01:48:19;19.80;;;14.57;;
3924;SDS011;1977;52.274;10.518;2024-03-06T01:50:47;17.90;;;13.90;;
3924;SDS011;1977;52.274;10.518;2024-03-06T01:53:14;18.33;;;14.60;;
3924;SDS011;1977;52.274;10.518;2024-03-06T01:55:45;17.87;;;13.63;;
3924;SDS011;1977;52.274;10.518;2024-03-06T01:58:14;18.90;;;13.70;;
3924;SDS011;1977;52.274;10.518;2024-03-06T02:00:40;15.83;;;12.60;;
3924;SDS011;1977;52.274;10.518;2024-03-06T02:03:08;17.63;;;14.00;;
3924;SDS011;1977;52.274;10.518;2024-03-06T02:05:34;17.10;;;13.50;;
3924;SDS011;1977;52.274;10.518;2024-03-06T02:08:01;17.97;;;14.77;;
3924;SDS011;1977;52.274;10.518;2024-03-06T02:10:30;18.77;;;13.67;;
3924;SDS011;1977;52.274;10.518;2024-03-06T02:12:58;19.80;;;14.10;;
3924;SDS011;1977;52.274;10.518;2024-03-06T02:15:25;21.57;;;15.07;;
3924;SDS011;1977;52.274;10.518;2024-03-06T02:17:52;18.50;;;13.67;;
3924;SDS011;1977;52.274;10.518;2024-03-06T02:20:22;19.87;;;14.80;;
3924;SDS011;1977;52.274;10.518;2024-03-06T02:22:49;16.93;;;14.13;;
3924;SDS011;1977;52.274;10.518;2024-03-06T02:25:16;19.73;;;14.13;;
3924;SDS011;1977;52.274;10.518;2024-03-06T02:27:44;16.70;;;13.13;;
3924;SDS011;1977;52.274;10.518;2024-03-06T02:30:13;19.57;;;13.53;;
3924;SDS011;1977;52.274;10.518;2024-03-06T02:32:40;20.83;;;13.27;;
3924;SDS011;1977;52.274;10.518;2024-03-06T02:35:08;19.27;;;13.47;;
3924;SDS011;1977;52.274;10.518;2024-03-06T02:37:36;20.93;;;14.07;;
3924;SDS011;1977;52.274;10.518;2024-03-06T02:40:04;18.50;;;12.70;;
3924;SDS011;1977;52.274;10.518;2024-03-06T02:42:34;18.50;;;14.33;;
3924;SDS011;1977;52.274;10.518;2024-03-06T02:45:02;16.73;;;12.83;;
3924;SDS011;1977;52.274;10.518;2024-03-06T02:47:29;16.60;;;13.63;;
3924;SDS011;1977;52.274;10.518;2024-03-06T02:49:56;22.83;;;13.23;;
3924;SDS011;1977;52.274;10.518;2024-03-06T02:52:23;18.50;;;13.40;;
3924;SDS011;1977;52.274;10.518;2024-03-06T02:54:51;21.13;;;13.83;;
3924;SDS011;1977;52.274;10.518;2024-03-06T02:57:18;20.77;;;13.80;;
3924;SDS011;1977;52.274;10.518;2024-03-06T02:59:44;23.13;;;15.30;;
3924;SDS011;1977;52.274;10.518;2024-03-06T03:02:16;19.33;;;14.07;;
3924;SDS011;1977;52.274;10.518;2024-03-06T03:04:43;18.40;;;13.53;;
3924;SDS011;1977;52.274;10.518;2024-03-06T03:07:10;22.27;;;14.40;;
3924;SDS011;1977;52.274;10.518;2024-03-06T03:09:37;20.77;;;14.57;;
3924;SDS011;1977;52.274;10.518;2024-03-06T03:12:05;17.80;;;13.50;;
3924;SDS011;1977;52.274;10.518;2024-03-06T03:14:32;16.23;;;13.13;;
3924;SDS011;1977;52.274;10.518;2024-03-06T03:17:00;19.43;;;14.07;;
3924;SDS011;1977;52.274;10.518;2024-03-06T03:19:27;20.80;;;14.80;;
3924;SDS011;1977;52.274;10.518;2024-03-06T03:21:54;21.13;;;14.47;;
3924;SDS011;1977;52.274;10.518;2024-03-06T03:24:21;19.90;;;14.53;;
3924;SDS011;1977;52.274;10.518;2024-03-06T03:26:48;18.43;;;14.27;;
3924;SDS011;1977;52.274;10.518;2024-03-06T03:29:17;22.67;;;14.27;;
3924;SDS011;1977;52.274;10.518;2024-03-06T03:31:45;18.37;;;15.30;;
3924;SDS011;1977;52.274;10.518;2024-03-06T03:34:12;17.60;;;13.53;;
3924;SDS011;1977;52.274;10.518;2024-03-06T03:36:39;20.10;;;13.60;;
3924;SDS011;1977;52.274;10.518;2024-03-06T03:39:07;21.10;;;14.70;;
3924;SDS011;1977;52.274;10.518;2024-03-06T03:41:38;19.37;;;14.17;;
3924;SDS011;1977;52.274;10.518;2024-03-06T03:44:09;24.03;;;14.37;;
3924;SDS011;1977;52.274;10.518;2024-03-06T03:46:37;19.53;;;14.57;;
3924;SDS011;1977;52.274;10.518;2024-03-06T03:49:04;21.87;;;14.93;;
3924;SDS011;1977;52.274;10.518;2024-03-06T03:51:31;24.03;;;15.40;;
3924;SDS011;1977;52.274;10.518;2024-03-06T03:53:58;23.23;;;15.40;;
3924;SDS011;1977;52.274;10.518;2024-03-06T03:56:25;21.20;;;15.70;;
3924;SDS011;1977;52.274;10.518;2024-03-06T03:58:52;22.57;;;15.70;;
3924;SDS011;1977;52.274;10.518;2024-03-06T04:01:19;21.80;;;15.60;;
3924;SDS011;1977;52.274;10.518;2024-03-06T04:03:47;22.27;;;15.57;;
3924;SDS011;1977;52.274;10.518;2024-03-06T04:06:14;24.20;;;16.40;;
3924;SDS011;1977;52.274;10.518;2024-03-06T04:08:40;21.20;;;15.23;;
3924;SDS011;1977;52.274;10.518;2024-03-06T04:11:07;20.10;;;14.13;;
3924;SDS011;1977;52.274;10.518;2024-03-06T04:13:36;23.63;;;15.33;;
3924;SDS011;1977;52.274;10.518;2024-03-06T04:16:04;19.80;;;15.50;;
3924;SDS011;1977;52.274;10.518;2024-03-06T04:18:31;18.93;;;14.37;;
3924;SDS011;1977;52.274;10.518;2024-03-06T04:21:01;22.90;;;14.90;;
3924;SDS011;1977;52.274;10.518;2024-03-06T04:23:30;24.10;;;14.90;;
3924;SDS011;1977;52.274;10.518;2024-03-06T04:25:56;19.30;;;14.07;;
3924;SDS011;1977;52.274;10.518;2024-03-06T04:28:23;21.33;;;16.03;;
3924;SDS011;1977;52.274;10.518;2024-03-06T04:30:50;21.50;;;15.27;;
3924;SDS011;1977;52.274;10.518;2024-03-06T04:33:17;19.53;;;14.97;;
3924;SDS011;1977;52.274;10.518;2024-03-06T04:35:43;22.60;;;15.03;;
3924;SDS011;1977;52.274;10.518;2024-03-06T04:38:12;22.97;;;14.57;;
3924;SDS011;1977;52.274;10.518;2024-03-06T04:40:38;22.33;;;15.13;;
3924;SDS011;1977;52.274;10.518;2024-03-06T04:43:05;20.70;;;15.60;;
3924;SDS011;1977;52.274;10.518;2024-03-06T04:45:32;23.80;;;15.87;;
3924;SDS011;1977;52.274;10.518;2024-03-06T04:47:59;22.13;;;15.53;;
3924;SDS011;1977;52.274;10.518;2024-03-06T04:50:26;25.40;;;16.67;;
3924;SDS011;1977;52.274;10.518;2024-03-06T04:52:53;21.00;;;15.37;;
3924;SDS011;1977;52.274;10.518;2024-03-06T04:55:22;19.23;;;14.87;;
3924;SDS011;1977;52.274;10.518;2024-03-06T04:57:52;20.40;;;15.77;;
3924;SDS011;1977;52.274;10.518;2024-03-06T05:00:19;23.03;;;16.17;;
3924;SDS011;1977;52.274;10.518;2024-03-06T05:02:46;21.70;;;14.97;;
3924;SDS011;1977;52.274;10.518;2024-03-06T05:05:14;24.77;;;16.00;;
3924;SDS011;1977;52.274;10.518;2024-03-06T05:07:41;22.97;;;14.63;;
3924;SDS011;1977;52.274;10.518;2024-03-06T05:10:08;24.23;;;15.77;;
3924;SDS011;1977;52.274;10.518;2024-03-06T05:12:36;23.63;;;15.50;;
3924;SDS011;1977;52.274;10.518;2024-03-06T05:15:04;23.33;;;15.07;;
3924;SDS011;1977;52.274;10.518;2024-03-06T05:17:31;20.83;;;14.47;;
3924;SDS011;1977;52.274;10.518;2024-03-06T05:19:58;23.43;;;15.50;;
3924;SDS011;1977;52.274;10.518;2024-03-06T05:22:25;26.90;;;17.63;;
3924;SDS011;1977;52.274;10.518;2024-03-06T05:24:52;17.80;;;14.80;;
3924;SDS011;1977;52.274;10.518;2024-03-06T05:27:20;19.80;;;14.90;;
3924;SDS011;1977;52.274;10.518;2024-03-06T05:29:48;22.47;;;15.70;;
3924;SDS011;1977;52.274;10.518;2024-03-06T05:32:14;25.57;;;15.83;;
3924;SDS011;1977;52.274;10.518;2024-03-06T05:34:41;24.10;;;17.23;;
3924;SDS011;1977;52.274;10.518;2024-03-06T05:37:08;22.67;;;16.77;;
3924;SDS011;1977;52.274;10.518;2024-03-06T05:39:35;27.00;;;16.00;;
3924;SDS011;1977;52.274;10.518;2024-03-06T05:42:02;23.63;;;16.17;;
3924;SDS011;1977;52.274;10.518;2024-03-06T05:44:30;23.20;;;16.07;;
3924;SDS011;1977;52.274;10.518;2024-03-06T05:46:58;21.23;;;14.87;;
3924;SDS011;1977;52.274;10.518;2024-03-06T05:49:26;23.77;;;16.73;;
3924;SDS011;1977;52.274;10.518;2024-03-06T05:51:53;27.57;;;17.77;;
3924;SDS011;1977;52.274;10.518;2024-03-06T05:54:20;24.50;;;16.10;;
3924;SDS011;1977;52.274;10.518;2024-03-06T05:56:47;24.83;;;16.03;;
3924;SDS011;1977;52.274;10.518;2024-03-06T05:59:16;19.23;;;15.43;;
3924;SDS011;1977;52.274;10.518;2024-03-06T06:01:43;25.37;;;16.93;;
3924;SDS011;1977;52.274;10.518;2024-03-06T06:04:11;25.43;;;16.30;;
3924;SDS011;1977;52.274;10.518;2024-03-06T06:06:39;23.23;;;15.93;;
3924;SDS011;1977;52.274;10.518;2024-03-06T06:09:06;24.73;;;14.70;;
3924;SDS011;1977;52.274;10.518;2024-03-06T06:11:37;24.70;;;16.63;;
3924;SDS011;1977;52.274;10.518;2024-03-06T06:14:04;28.43;;;17.07;;
3924;SDS011;1977;52.274;10.518;2024-03-06T06:16:34;23.60;;;16.50;;
3924;SDS011;1977;52.274;10.518;2024-03-06T06:19:02;22.37;;;17.00;;
3924;SDS011;1977;52.274;10.518;2024-03-06T06:21:32;21.07;;;16.13;;
3924;SDS011;1977;52.274;10.518;2024-03-06T06:24:00;32.80;;;18.00;;
3924;SDS011;1977;52.274;10.518;2024-03-06T06:26:28;22.50;;;15.67;;
3924;SDS011;1977;52.274;10.518;2024-03-06T06:28:55;22.03;;;15.80;;
3924;SDS011;1977;52.274;10.518;2024-03-06T06:31:22;24.63;;;14.93;;
3924;SDS011;1977;52.274;10.518;2024-03-06T06:33:50;21.40;;;15.60;;
3924;SDS011;1977;52.274;10.518;2024-03-06T06:36:17;25.10;;;16.13;;
3924;SDS011;1977;52.274;10.518;2024-03-06T06:38:45;24.57;;;15.73;;
3924;SDS011;1977;52.274;10.518;2024-03-06T06:41:13;26.70;;;16.33;;
3924;SDS011;1977;52.274;10.518;2024-03-06T06:43:40;24.10;;;16.70;;
3924;SDS011;1977;52.274;10.518;2024-03-06T06:46:07;25.07;;;16.60;;
3924;SDS011;1977;52.274;10.518;2024-03-06T06:48:34;20.70;;;15.30;;
3924;SDS011;1977;52.274;10.518;2024-03-06T06:51:01;23.23;;;15.67;;
3924;SDS011;1977;52.274;10.518;2024-03-06T06:53:28;20.73;;;16.27;;
3924;SDS011;1977;52.274;10.518;2024-03-06T06:55:56;21.83;;;16.00;;
3924;SDS011;1977;52.274;10.518;2024-03-06T06:58:23;31.43;;;16.03;;
3924;SDS011;1977;52.274;10.518;2024-03-06T07:00:52;28.17;;;16.47;;
3924;SDS011;1977;52.274;10.518;2024-03-06T07:03:18;25.40;;;16.13;;
3924;SDS011;1977;52.274;10.518;2024-03-06T07:05:46;23.50;;;17.00;;
3924;SDS011;1977;52.274;10.518;2024-03-06T07:08:13;25.90;;;17.47;;
3924;SDS011;1977;52.274;10.518;2024-03-06T07:10:40;28.00;;;16.67;;
3924;SDS011;1977;52.274;10.518;2024-03-06T07:13:08;22.87;;;16.80;;
3924;SDS011;1977;52.274;10.518;2024-03-06T07:15:34;22.53;;;15.90;;
3924;SDS011;1977;52.274;10.518;2024-03-06T07:18:01;28.40;;;16.93;;
3924;SDS011;1977;52.274;10.518;2024-03-06T07:20:28;22.53;;;17.37;;
3924;SDS011;1977;52.274;10.518;2024-03-06T07:22:56;23.73;;;16.50;;
3924;SDS011;1977;52.274;10.518;2024-03-06T07:25:23;24.90;;;17.20;;
3924;SDS011;1977;52.274;10.518;2024-03-06T07:27:50;23.50;;;16.13;;
3924;SDS011;1977;52.274;10.518;2024-03-06T07:30:18;22.40;;;15.70;;
3924;SDS011;1977;52.274;10.518;2024-03-06T07:32:45;22.17;;;16.70;;
3924;SDS011;1977;52.274;10.518;2024-03-06T07:35:12;23.10;;;16.83;;
3924;SDS011;1977;52.274;10.518;2024-03-06T07:37:39;26.70;;;18.23;;
3924;SDS011;1977;52.274;10.518;2024-03-06T07:40:07;24.97;;;16.97;;
3924;SDS011;1977;52.274;10.518;2024-03-06T07:42:34;26.63;;;16.77;;
3924;SDS011;1977;52.274;10.518;2024-03-06T07:45:03;27.57;;;17.83;;
3924;SDS011;1977;52.274;10.518;2024-03-06T07:47:31;25.07;;;17.30;;
3924;SDS011;1977;52.274;10.518;2024-03-06T07:49:58;23.63;;;16.87;;
3924;SDS011;1977;52.274;10.518;2024-03-06T07:52:25;25.00;;;16.00;;
3924;SDS011;1977;52.274;10.518;2024-03-06T07:54:51;28.30;;;17.33;;
3924;SDS011;1977;52.274;10.518;2024-03-06T07:57:18;24.17;;;16.53;;
3924;SDS011;1977;52.274;10.518;2024-03-06T07:59:46;27.23;;;18.60;;
3924;SDS011;1977;52.274;10.518;2024-03-06T08:02:14;27.87;;;18.17;;
3924;SDS011;1977;52.274;10.518;2024-03-06T08:04:42;24.73;;;17.47;;
3924;SDS011;1977;52.274;10.518;2024-03-06T08:07:09;23.30;;;16.93;;
3924;SDS011;1977;52.274;10.518;2024-03-06T08:09:36;23.90;;;18.40;;
3924;SDS011;1977;52.274;10.518;2024-03-06T08:12:03;25.50;;;16.80;;
3924;SDS011;1977;52.274;10.518;2024-03-06T08:14:30;27.17;;;19.20;;
3924;SDS011;1977;52.274;10.518;2024-03-06T08:16:57;26.00;;;16.43;;
3924;SDS011;1977;52.274;10.518;2024-03-06T08:19:23;23.90;;;18.80;;
3924;SDS011;1977;52.274;10.518;2024-03-06T08:21:53;24.30;;;17.60;;
3924;SDS011;1977;52.274;10.518;2024-03-06T08:24:19;23.63;;;17.90;;
3924;SDS011;1977;52.274;10.518;2024-03-06T08:26:46;24.93;;;17.33;;
3924;SDS011;1977;52.274;10.518;2024-03-06T08:29:14;24.53;;;17.47;;
3924;SDS011;1977;52.274;10.518;2024-03-06T08:31:40;25.60;;;17.03;;
3924;SDS011;1977;52.274;10.518;2024-03-06T08:34:07;24.30;;;17.17;;
3924;SDS011;1977;52.274;10.518;2024-03-06T08:36:34;27.70;;;18.20;;
3924;SDS011;1977;52.274;10.518;2024-03-06T08:39:03;23.57;;;18.00;;
3924;SDS011;1977;52.274;10.518;2024-03-06T08:41:30;25.03;;;17.20;;
3924;SDS011;1977;52.274;10.518;2024-03-06T08:43:57;24.70;;;17.43;;
3924;SDS011;1977;52.274;10.518;2024-03-06T08:46:24;27.30;;;17.80;;
3924;SDS011;1977;52.274;10.518;2024-03-06T08:48:51;23.53;;;17.27;;
3924;SDS011;1977;52.274;10.518;2024-03-06T08:51:17;23.93;;;16.67;;
3924;SDS011;1977;52.274;10.518;2024-03-06T08:53:45;28.57;;;19.60;;
3924;SDS011;1977;52.274;10.518;2024-03-06T08:56:14;24.00;;;17.90;;
3924;SDS011;1977;52.274;10.518;2024-03-06T08:58:41;24.07;;;17.90;;
3924;SDS011;1977;52.274;10.518;2024-03-06T09:01:08;25.00;;;17.40;;
3924;SDS011;1977;52.274;10.518;2024-03-06T09:03:34;27.20;;;17.93;;
3924;SDS011;1977;52.274;10.518;2024-03-06T09:06:01;26.73;;;18.67;;
3924;SDS011;1977;52.274;10.518;2024-03-06T09:08:29;27.93;;;17.73;;
3924;SDS011;1977;52.274;10.518;2024-03-06T09:10:55;23.73;;;17.57;;
3924;SDS011;1977;52.274;10.518;2024-03-06T09:13:25;24.03;;;17.87;;
3924;SDS011;1977;52.274;10.518;2024-03-06T09:15:52;26.27;;;18.20;;
3924;SDS011;1977;52.274;10.518;2024-03-06T09:18:18;30.50;;;19.03;;
3924;SDS011;1977;52.274;10.518;2024-03-06T09:20:46;31.33;;;19.17;;
3924;SDS011;1977;52.274;10.518;2024-03-06T09:23:12;29.33;;;19.30;;
3924;SDS011;1977;52.274;10.518;2024-03-06T09:25:40;30.20;;;19.07;;
3924;SDS011;1977;52.274;10.518;2024-03-06T09:28:07;29.97;;;18.47;;
3924;SDS011;1977;52.274;10.518;2024-03-06T09:30:35;29.03;;;20.10;;
3924;SDS011;1977;52.274;10.518;2024-03-06T09:33:02;25.60;;;18.20;;
3924;SDS011;1977;52.274;10.518;2024-03-06T09:35:29;30.80;;;20.63;;
3924;SDS011;1977;52.274;10.518;2024-03-06T09:37:57;25.60;;;18.17;;
3924;SDS011;1977;52.274;10.518;2024-03-06T09:40:26;26.70;;;19.83;;
3924;SDS011;1977;52.274;10.518;2024-03-06T09:42:54;29.20;;;19.90;;
3924;SDS011;1977;52.274;10.518;2024-03-06T09:45:21;30.83;;;19.87;;
3924;SDS011;1977;52.274;10.518;2024-03-06T09:47:49;29.63;;;21.43;;
3924;SDS011;1977;52.274;10.518;2024-03-06T09:50:17;34.40;;;22.47;;
3924;SDS011;1977;52.274;10.518;2024-03-06T09:52:49;35.60;;;22.23;;
3924;SDS011;1977;52.274;10.518;2024-03-06T09:55:17;28.73;;;19.43;;
3924;SDS011;1977;52.274;10.518;2024-03-06T09:57:44;28.60;;;20.77;;
3924;SDS011;1977;52.274;10.518;2024-03-06T10:00:11;33.40;;;20.23;;
3924;SDS011;1977;52.274;10.518;2024-03-06T10:02:51;27.77;;;20.10;;
3924;SDS011;1977;52.274;10.518;2024-03-06T10:05:25;27.83;;;19.00;;
3924;SDS011;1977;52.274;10.518;2024-03-06T10:07:53;28.83;;;20.23;;
3924;SDS011;1977;52.274;10.518;2024-03-06T10:10:20;31.00;;;19.80;;
3924;SDS011;1977;52.274;10.518;2024-03-06T10:12:47;24.37;;;18.47;;
3924;SDS011;1977;52.274;10.518;2024-03-06T10:15:15;27.63;;;19.83;;
3924;SDS011;1977;52.274;10.518;2024-03-06T10:17:42;27.03;;;17.97;;
3924;SDS011;1977;52.274;10.518;2024-03-06T10:20:18;21.67;;;17.27;;
3924;SDS011;1977;52.274;10.518;2024-03-06T10:22:47;26.00;;;18.00;;
3924;SDS011;1977;52.274;10.518;2024-03-06T10:25:15;22.73;;;17.97;;
3924;SDS011;1977;52.274;10.518;2024-03-06T10:27:44;28.57;;;18.00;;
3924;SDS011;1977;52.274;10.518;2024-03-06T10:30:11;28.10;;;19.73;;
3924;SDS011;1977;52.274;10.518;2024-03-06T10:32:41;22.90;;;17.27;;
3924;SDS011;1977;52.274;10.518;2024-03-06T10:35:17;25.67;;;16.40;;
3924;SDS011;1977;52.274;10.518;2024-03-06T10:37:46;24.90;;;17.97;;
3924;SDS011;1977;52.274;10.518;2024-03-06T10:40:14;24.63;;;18.57;;
3924;SDS011;1977;52.274;10.518;2024-03-06T10:42:43;21.97;;;17.10;;
3924;SDS011;1977;52.274;10.518;2024-03-06T10:45:12;25.00;;;16.97;;
3924;SDS011;1977;52.274;10.518;2024-03-06T10:47:41;22.73;;;18.33;;
3924;SDS011;1977;52.274;10.518;2024-03-06T10:50:13;23.33;;;17.73;;
3924;SDS011;1977;52.274;10.518;2024-03-06T10:52:42;30.27;;;18.47;;
3924;SDS011;1977;52.274;10.518;2024-03-06T10:55:13;20.73;;;16.23;;
3924;SDS011;1977;52.274;10.518;2024-03-06T10:57:41;24.80;;;17.63;;
3924;SDS011;1977;52.274;10.518;2024-03-06T11:00:10;25.27;;;18.23;;
3924;SDS011;1977;52.274;10.518;2024-03-06T11:02:42;26.00;;;17.90;;
3924;SDS011;1977;52.274;10.518;2024-03-06T11:05:13;25.20;;;17.47;;
3924;SDS011;1977;52.274;10.518;2024-03-06T11:07:40;26.87;;;17.63;;
3924;SDS011;1977;52.274;10.518;2024-03-06T11:10:09;22.60;;;17.30;;
3924;SDS011;1977;52.274;10.518;2024-03-06T11:12:41;23.10;;;18.77;;
3924;SDS011;1977;52.274;10.518;2024-03-06T11:15:10;22.60;;;18.00;;
3924;SDS011;1977;52.274;10.518;2024-03-06T11:17:40;22.27;;;17.30;;
3924;SDS011;1977;52.274;10.518;2024-03-06T11:20:08;24.43;;;18.33;;
3924;SDS011;1977;52.274;10.518;2024-03-06T11:28:32;24.97;;;19.50;;
3924;SDS011;1977;52.274;10.518;2024-03-06T11:31:00;24.53;;;18.10;;
3924;SDS011;1977;52.274;10.518;2024-03-06T11:33:28;23.63;;;17.70;;
3924;SDS011;1977;52.274;10.518;2024-03-06T11:36:14;23.33;;;17.73;;
3924;SDS011;1977;52.274;10.518;2024-03-06T11:38:47;20.03;;;17.50;;
3924;SDS011;1977;52.274;10.518;2024-03-06T11:41:19;23.50;;;17.50;;
3924;SDS011;1977;52.274;10.518;2024-03-06T11:43:47;24.67;;;18.67;;
3924;SDS011;1977;52.274;10.518;2024-03-06T11:46:16;29.53;;;17.97;;
3924;SDS011;1977;52.274;10.518;2024-03-06T11:48:43;22.90;;;17.67;;
3924;SDS011;1977;52.274;10.518;2024-03-06T11:51:18;22.53;;;18.03;;
3924;SDS011;1977;52.274;10.518;2024-03-06T11:53:45;23.00;;;18.03;;
3924;SDS011;1977;52.274;10.518;2024-03-06T11:56:14;22.07;;;17.77;;
3924;SDS011;1977;52.274;10.518;2024-03-06T11:58:40;20.10;;;17.00;;
3924;SDS011;1977;52.274;10.518;2024-03-06T12:01:07;22.70;;;16.97;;
3924;SDS011;1977;52.274;10.518;2024-03-06T12:03:34;20.93;;;16.30;;
3924;SDS011;1977;52.274;10.518;2024-03-06T12:06:01;24.77;;;17.87;;
3924;SDS011;1977;52.274;10.518;2024-03-06T12:08:29;23.47;;;17.00;;
3924;SDS011;1977;52.274;10.518;2024-03-06T12:10:56;23.40;;;17.70;;
3924;SDS011;1977;52.274;10.518;2024-03-06T12:13:25;25.33;;;18.27;;
3924;SDS011;1977;52.274;10.518;2024-03-06T12:15:52;22.63;;;17.47;;
3924;SDS011;1977;52.274;10.518;2024-03-06T12:18:18;29.10;;;17.83;;
3924;SDS011;1977;52.274;10.518;2024-03-06T12:20:45;23.93;;;18.27;;
3924;SDS011;1977;52.274;10.518;2024-03-06T12:23:19;21.80;;;15.90;;
3924;SDS011;1977;52.274;10.518;2024-03-06T12:26:01;21.57;;;16.50;;
3924;SDS011;1977;52.274;10.518;2024-03-06T12:28:30;25.83;;;17.37;;
3924;SDS011;1977;52.274;10.518;2024-03-06T12:30:57;22.17;;;15.50;;
3924;SDS011;1977;52.274;10.518;2024-03-06T12:33:27;30.53;;;18.20;;
3924;SDS011;1977;52.274;10.518;2024-03-06T12:36:01;23.20;;;16.77;;
3924;SDS011;1977;52.274;10.518;2024-03-06T12:38:29;23.70;;;17.40;;
3924;SDS011;1977;52.274;10.518;2024-03-06T12:40:56;22.67;;;17.17;;
3924;SDS011;1977;52.274;10.518;2024-03-06T12:43:23;24.93;;;17.07;;
3924;SDS011;1977;52.274;10.518;2024-03-06T12:45:51;30.43;;;17.87;;
3924;SDS011;1977;52.274;10.518;2024-03-06T12:48:20;23.83;;;18.10;;
3924;SDS011;1977;52.274;10.518;2024-03-06T12:50:47;28.30;;;18.23;;
3924;SDS011;1977;52.274;10.518;2024-03-06T12:53:16;26.17;;;18.80;;
3924;SDS011;1977;52.274;10.518;2024-03-06T12:55:44;24.50;;;17.80;;
3924;SDS011;1977;52.274;10.518;2024-03-06T12:58:11;22.70;;;16.90;;
3924;SDS011;1977;52.274;10.518;2024-03-06T13:00:39;26.53;;;17.87;;
3924;SDS011;1977;52.274;10.518;2024-03-06T13:03:07;24.27;;;17.17;;
3924;SDS011;1977;52.274;10.518;2024-03-06T13:05:35;26.23;;;17.47;;
3924;SDS011;1977;52.274;10.518;2024-03-06T13:08:02;24.97;;;17.70;;
3924;SDS011;1977;52.274;10.518;2024-03-06T13:10:29;25.40;;;17.57;;
3924;SDS011;1977;52.274;10.518;2024-03-06T13:12:56;21.63;;;16.07;;
3924;SDS011;1977;52.274;10.518;2024-03-06T13:15:22;20.07;;;16.63;;
3924;SDS011;1977;52.274;10.518;2024-03-06T13:17:49;19.60;;;16.40;;
3924;SDS011;1977;52.274;10.518;2024-03-06T13:20:18;28.13;;;16.90;;
3924;SDS011;1977;52.274;10.518;2024-03-06T13:22:44;23.63;;;17.33;;
3924;SDS011;1977;52.274;10.518;2024-03-06T13:25:11;25.23;;;15.97;;
3924;SDS011;1977;52.274;10.518;2024-03-06T13:27:38;20.77;;;16.37;;
3924;SDS011;1977;52.274;10.518;2024-03-06T13:30:05;26.53;;;17.10;;
3924;SDS011;1977;52.274;10.518;2024-03-06T13:32:33;20.73;;;16.27;;
3924;SDS011;1977;52.274;10.518;2024-03-06T13:35:00;20.40;;;14.30;;
3924;SDS011;1977;52.274;10.518;2024-03-06T13:37:28;20.33;;;14.60;;
3924;SDS011;1977;52.274;10.518;2024-03-06T13:39:55;20.37;;;16.03;;
3924;SDS011;1977;52.274;10.518;2024-03-06T13:42:25;24.43;;;18.13;;
3924;SDS011;1977;52.274;10.518;2024-03-06T13:44:52;22.70;;;16.30;;
3924;SDS011;1977;52.274;10.518;2024-03-06T13:47:20;21.67;;;16.97;;
3924;SDS011;1977;52.274;10.518;2024-03-06T13:49:47;25.30;;;15.90;;
3924;SDS011;1977;52.274;10.518;2024-03-06T13:52:14;23.27;;;15.13;;
3924;SDS011;1977;52.274;10.518;2024-03-06T13:54:46;22.33;;;16.23;;
3924;SDS011;1977;52.274;10.518;2024-03-06T13:57:13;22.80;;;14.90;;
3924;SDS011;1977;52.274;10.518;2024-03-06T13:59:40;18.30;;;15.03;;
3924;SDS011;1977;52.274;10.518;2024-03-06T14:02:07;22.53;;;15.80;;
3924;SDS011;1977;52.274;10.518;2024-03-06T14:04:34;19.00;;;14.50;;
3924;SDS011;1977;52.274;10.518;2024-03-06T14:07:01;18.00;;;14.70;;
3924;SDS011;1977;52.274;10.518;2024-03-06T14:09:28;19.23;;;14.90;;
3924;SDS011;1977;52.274;10.518;2024-03-06T14:11:57;22.77;;;16.40;;
3924;SDS011;1977;52.274;10.518;2024-03-06T14:14:23;21.43;;;16.33;;
3924;SDS011;1977;52.274;10.518;2024-03-06T14:16:50;21.33;;;15.27;;
3924;SDS011;1977;52.274;10.518;2024-03-06T14:19:17;20.27;;;14.80;;
3924;SDS011;1977;52.274;10.518;2024-03-06T14:21:44;17.73;;;15.10;;
3924;SDS011;1977;52.274;10.518;2024-03-06T14:24:12;21.70;;;15.50;;
3924;SDS011;1977;52.274;10.518;2024-03-06T14:26:39;20.37;;;16.23;;
3924;SDS011;1977;52.274;10.518;2024-03-06T14:29:07;22.67;;;15.47;;
3924;SDS011;1977;52.274;10.518;2024-03-06T14:31:34;23.33;;;15.77;;
3924;SDS011;1977;52.274;10.518;2024-03-06T14:34:01;21.87;;;17.93;;
3924;SDS011;1977;52.274;10.518;2024-03-06T14:36:28;23.87;;;15.23;;
3924;SDS011;1977;52.274;10.518;2024-03-06T14:38:55;19.47;;;14.70;;
3924;SDS011;1977;52.274;10.518;2024-03-06T14:41:22;21.70;;;15.70;;